Latest Weather Observations for Borroloola

IDD60801

Issued at 2:01 pm CST Monday 27 February 2017 (issued every 30 minutes, with the page automatically refreshed every 10 minutes)

About weather observations | Map of weather stations | Latest weather observations for NT | Other Formats
Station Details ID: 014723 Name: BORROLOOLA AIRPORT Lat: -16.08 Lon: 136.30 Height: 16.1 m
Data from the previous 72 hours. | See also: Recent months at Borroloola
Date/Time
CST
Temp
°C
App
Temp
°C
Dew
Point
°C
Rel
Hum
%
Delta-T
°C
Wind Press
QNH
hPa
Press
MSL
hPa
Rain since
9am
mm
Dir  Spd
km/h
Gust
km/h
Spd
kts
Gust
kts
27/02:00pm 30.6 32.5 21.4 58 6.2 E 13 22 7 12 1008.5 1008.4 0.2
27/01:30pm 33.5 34.2 21.6 49 8.1 ENE 20 32 11 17 1008.6 1008.5 0.2
27/01:00pm 32.9 34.4 22.0 52 7.4 ENE 17 24 9 13 1008.9 1008.8 0.2
27/12:30pm 32.7 35.2 23.1 57 6.6 NE 15 26 8 14 1009.3 1009.2 0.2
27/12:00pm 32.3 34.3 23.0 58 6.4 NE 17 24 9 13 1009.6 1009.5 0.2
27/11:30am 31.2 33.7 21.7 57 6.4 E 11 22 6 12 1010.1 1010.0 0.2
27/11:00am 31.1 32.7 22.1 58 6.1 ENE 17 22 9 12 1010.3 1010.2 0.2
27/10:30am 31.3 35.8 23.7 64 5.3 ESE 6 13 3 7 1010.6 1010.5 0.2
27/10:00am 30.8 34.4 23.7 66 4.9 ESE 11 20 6 11 1010.9 1010.8 0.2
27/09:30am 29.9 35.3 24.5 73 3.8 ESE 4 9 2 5 1010.8 1010.7 0.2
27/09:00am 29.0 34.1 24.6 77 3.1 ESE 6 9 3 5 1010.6 1010.5 9.8
27/08:30am 27.6 32.6 24.8 85 2.0 SE 7 9 4 5 1010.5 1010.4 9.8
27/08:00am 26.4 31.2 24.2 88 1.5 SSE 6 7 3 4 1010.1 1010.0 9.8
27/07:30am 25.4 31.4 24.2 93 0.8 CALM 0 6 0 3 1009.8 1009.7 9.8
27/07:00am 24.4 30.2 23.9 97 0.3 CALM 0 0 0 0 1009.3 1009.2 9.8
27/06:30am 23.7 29.0 23.0 96 0.5 CALM 0 0 0 0 1009.1 1009.0 9.8
27/06:00am 23.6 28.8 22.8 95 0.5 CALM 0 0 0 0 1008.9 1008.8 9.8
27/05:30am 23.8 29.1 23.0 95 0.5 CALM 0 0 0 0 1008.8 1008.7 9.8
27/05:00am 23.8 29.1 23.0 95 0.5 CALM 0 0 0 0 1008.8 1008.7 9.8
27/04:30am 23.8 29.0 22.8 94 0.7 CALM 0 0 0 0 1008.9 1008.8 9.8
27/04:00am 23.9 29.1 22.9 94 0.7 CALM 0 0 0 0 1009.0 1008.9 9.8
27/03:30am 24.2 29.5 23.0 93 0.8 CALM 0 0 0 0 1009.1 1009.0 9.8
27/03:00am 24.3 29.7 23.3 94 0.7 CALM 0 2 0 1 1009.2 1009.1 9.8
27/02:30am 24.3 29.7 23.3 94 0.7 CALM 0 0 0 0 1009.3 1009.2 9.8
27/02:00am 24.4 29.9 23.4 94 0.7 CALM 0 0 0 0 1009.3 1009.2 9.8
27/01:30am 24.5 29.9 23.3 93 0.8 CALM 0 0 0 0 1009.2 1009.1 9.8
27/01:00am 24.8 30.3 23.4 92 1.0 CALM 0 0 0 0 1009.5 1009.4 9.8
27/12:30am 25.1 30.8 23.7 92 1.0 CALM 0 0 0 0 1009.7 1009.6 9.8
27/12:00am 25.1 30.8 23.7 92 1.0 CALM 0 0 0 0 1010.0 1009.9 9.8
 
Date/Time
CST
Temp
°C
App
Temp
°C
Dew
Point
°C
Rel
Hum
%
Delta-T
°C
Wind Press
QNH
hPa
Press
MSL
hPa
Rain since
9am
mm
Dir  Spd
km/h
Gust
km/h
Spd
kts
Gust
kts
26/11:30pm 25.2 30.7 23.4 90 1.2 CALM 0 0 0 0 1010.0 1009.9 9.8
26/11:00pm 25.2 29.7 23.6 91 1.1 SSE 6 7 3 4 1009.9 1009.8 9.8
26/10:30pm 25.3 30.1 23.5 90 1.2 SSE 4 7 2 4 1009.7 1009.6 9.8
26/10:00pm 25.5 31.1 23.6 89 1.3 CALM 0 0 0 0 1009.6 1009.5 9.8
26/09:30pm 25.6 31.3 23.8 90 1.2 CALM 0 0 0 0 1009.1 1009.0 9.8
26/09:00pm 25.6 31.3 23.7 89 1.3 CALM 0 0 0 0 1008.8 1008.7 9.8
26/08:30pm 25.6 31.0 23.3 87 1.6 CALM 0 0 0 0 1008.5 1008.4 9.8
26/08:00pm 25.7 30.3 23.2 86 1.7 SE 4 6 2 3 1008.4 1008.3 9.8
26/07:30pm 26.1 30.0 22.6 81 2.4 E 6 7 3 4 1008.1 1008.0 9.8
26/07:00pm 26.4 29.6 22.3 78 2.8 SSE 9 15 5 8 1007.5 1007.4 9.8
26/06:30pm 28.0 32.8 22.9 74 3.5 ENE 2 9 1 5 1007.3 1007.2 9.8
26/06:00pm 28.4 30.2 22.6 71 3.9 ENE 17 22 9 12 1007.4 1007.3 9.8
26/05:30pm 28.1 29.7 22.1 70 4.1 ENE 17 22 9 12 1007.3 1007.2 9.8
26/05:00pm 27.9 32.4 23.9 79 2.8 ENE 7 11 4 6 1007.0 1006.9 9.8
26/04:30pm 28.0 31.7 24.6 82 2.4 SE 13 20 7 11 1007.0 1006.9 9.8
26/04:00pm 27.1 31.9 24.4 85 1.9 NNE 7 9 4 5 1006.8 1006.7 9.8
26/03:30pm 25.0 27.4 22.3 85 1.8 SSW 13 32 7 17 1006.8 1006.7 8.8
26/03:19pm 26.7 25.5 20.8 70 3.9 E 28 43 15 23 1007.2 1007.1 2.4
26/03:00pm 32.2 34.0 23.2 59 6.2 ENE 19 30 10 16 1006.0 1005.9 0.2
26/02:30pm 33.6 36.2 22.7 53 7.5 ESE 13 22 7 12 1006.3 1006.2 0.2
26/02:00pm 33.9 35.8 22.7 52 7.7 ESE 17 22 9 12 1006.5 1006.4 0.2
26/01:30pm 33.9 37.1 22.3 50 8.0 SE 9 17 5 9 1006.7 1006.6 0.2
26/01:00pm 33.1 36.9 23.4 56 6.7 SE 9 15 5 8 1007.1 1007.0 0.2
26/12:30pm 32.9 36.3 22.0 52 7.4 SSE 7 13 4 7 1007.6 1007.5 0.2
26/12:00pm 32.7 37.0 23.3 57 6.5 E 6 15 3 8 1008.3 1008.2 0.2
26/11:30am 31.9 35.7 23.4 60 5.9 SE 9 15 5 8 1008.7 1008.6 0.0
26/11:00am 31.1 34.0 22.4 60 5.9 S 11 17 6 9 1009.0 1008.9 0.0
26/10:30am 31.1 35.1 23.7 64 5.1 S 9 13 5 7 1009.2 1009.1 0.0
26/10:00am 30.3 34.5 23.5 67 4.7 S 7 13 4 7 1009.4 1009.3 0.0
26/09:30am 29.4 33.0 23.1 69 4.3 S 9 13 5 7 1009.5 1009.4 0.0
26/09:00am 28.8 32.6 23.5 73 3.6 S 9 13 5 7 1009.3 1009.2 12.8
26/08:30am 27.8 31.8 23.8 79 2.8 SSE 9 11 5 6 1009.5 1009.4 12.8
26/08:00am 26.5 30.5 23.8 85 1.9 S 9 11 5 6 1009.3 1009.2 12.8
26/07:30am 25.5 30.5 24.5 94 0.7 S 6 9 3 5 1009.0 1008.9 12.8
26/07:00am 24.6 30.5 24.1 97 0.3 CALM 0 0 0 0 1008.3 1008.2 12.8
26/06:30am 24.2 29.8 23.5 96 0.5 CALM 0 0 0 0 1008.1 1008.0 12.8
26/06:00am 24.2 29.8 23.5 96 0.5 CALM 0 0 0 0 1007.9 1007.8 12.8
26/05:30am 24.2 29.8 23.5 96 0.5 CALM 0 0 0 0 1007.7 1007.6 12.8
26/05:00am 24.3 29.9 23.6 96 0.5 CALM 0 0 0 0 1007.5 1007.4 12.8
26/04:30am 24.4 30.0 23.5 95 0.6 CALM 0 0 0 0 1007.6 1007.5 12.8
26/04:00am 24.4 30.0 23.5 95 0.6 CALM 0 0 0 0 1007.4 1007.3 12.8
26/03:30am 24.5 30.1 23.5 94 0.7 CALM 0 6 0 3 1007.5 1007.4 12.8
26/03:00am 24.6 30.3 23.7 95 0.6 CALM 0 0 0 0 1007.6 1007.5 12.8
26/02:30am 24.7 30.4 23.7 94 0.7 CALM 0 0 0 0 1008.1 1008.0 12.8
26/02:00am 24.8 30.4 23.6 93 0.8 CALM 0 6 0 3 1008.5 1008.4 12.8
26/01:30am 24.9 30.7 23.9 94 0.7 CALM 0 0 0 0 1008.9 1008.8 12.8
26/01:00am 25.1 30.2 24.1 94 0.7 S 4 6 2 3 1009.4 1009.3 12.8
26/12:30am 25.0 30.8 24.0 94 0.7 CALM 0 0 0 0 1009.6 1009.5 12.8
26/12:00am 24.9 29.9 23.9 94 0.7 SSW 4 9 2 5 1010.0 1009.9 12.8
 
Date/Time
CST
Temp
°C
App
Temp
°C
Dew
Point
°C
Rel
Hum
%
Delta-T
°C
Wind Press
QNH
hPa
Press
MSL
hPa
Rain since
9am
mm
Dir  Spd
km/h
Gust
km/h
Spd
kts
Gust
kts
25/11:30pm 25.0 29.1 24.0 94 0.7 SE 9 11 5 6 1009.8 1009.7 12.8
25/11:00pm 25.0 30.8 24.0 94 0.7 CALM 0 6 0 3 1009.6 1009.5 12.8
25/10:30pm 24.7 30.4 23.7 94 0.7 CALM 0 0 0 0 1009.2 1009.1 12.8
25/10:00pm 24.5 28.2 23.3 93 0.8 NNW 9 11 5 6 1009.7 1009.6 12.6
25/09:30pm 24.4 28.2 23.4 94 0.7 WNW 9 9 5 5 1010.1 1010.0 12.6
25/09:00pm 24.3 28.6 23.3 94 0.7 W 6 11 3 6 1009.9 1009.8 12.0
25/08:30pm 24.0 27.7 22.6 92 0.9 NE 7 11 4 6 1010.2 1010.1 11.2
25/08:00pm 23.6 22.5 21.1 86 1.6 SE 28 44 15 24 1010.1 1010.0 9.0
25/07:55pm 23.8 21.5 20.1 80 2.4 SE 32 46 17 25 1010.2 1010.1 2.8
25/07:39pm 28.9 29.9 21.7 65 4.8 SE 19 37 10 20 1009.3 1009.2 0.0
25/07:30pm 29.2 33.0 23.4 71 4.0 E 9 11 5 6 1008.7 1008.6 0.0
25/07:00pm 30.0 33.8 22.4 63 5.2 NNE 6 7 3 4 1007.6 1007.5 0.0
25/06:30pm 30.8 33.8 21.9 59 6.0 NE 9 13 5 7 1007.6 1007.5 0.0
25/06:00pm 31.7 34.9 22.4 58 6.4 NNE 9 13 5 7 1007.0 1006.9 0.0
25/05:30pm 32.1 34.8 22.2 56 6.8 NNE 11 17 6 9 1006.8 1006.7 0.0
25/05:00pm 32.4 34.8 22.2 55 7.0 N 13 19 7 10 1006.7 1006.6 0.0
25/04:30pm 32.8 35.9 22.9 56 6.8 N 11 17 6 9 1006.7 1006.6 0.0
25/04:00pm 33.1 36.3 23.1 55 6.9 NNE 11 15 6 8 1007.1 1007.0 0.0
25/03:30pm 33.1 36.3 23.1 55 6.9 NNE 11 19 6 10 1007.5 1007.4 0.0
25/03:00pm 33.1 36.2 22.8 54 7.1 NNE 11 19 6 10 1007.8 1007.7 0.0
25/02:30pm 33.3 35.4 22.4 52 7.5 NE 15 26 8 14 1008.3 1008.2 0.0
25/02:00pm 33.5 36.1 22.6 53 7.5 NE 13 17 7 9 1008.6 1008.5 0.0
25/01:30pm 33.1 35.3 21.9 51 7.6 NNE 13 20 7 11 1009.2 1009.1 0.0
25/01:00pm 33.1 34.4 21.6 51 7.8 NE 17 20 9 11 1009.5 1009.4 0.0
25/12:30pm 33.4 35.5 20.9 48 8.4 NE 11 20 6 11 1009.8 1009.7 0.0
25/12:00pm 33.3 35.1 21.1 48 8.2 ENE 13 22 7 12 1010.1 1010.0 0.0
25/11:30am 32.6 36.2 22.4 55 7.0 NNE 7 15 4 8 1010.5 1010.4 0.0
25/11:00am 31.3 34.4 21.5 56 6.6 SW 7 9 4 5 1010.9 1010.8 0.0
25/10:30am 31.0 34.5 21.8 58 6.2 SSE 6 13 3 7 1011.2 1011.1 0.0
25/10:00am 30.3 33.8 21.1 58 6.2 SE 4 9 2 5 1011.2 1011.1 0.0
25/09:30am 29.6 33.3 20.7 58 5.9 ESE 2 7 1 4 1011.2 1011.1 0.0
25/09:00am 28.7 30.9 21.2 64 5.0 SE 11 17 6 9 1011.6 1011.5 0.2
25/08:30am 27.9 30.0 21.0 66 4.6 SE 11 17 6 9 1011.7 1011.6 0.2
25/08:00am 26.8 28.6 21.1 71 3.8 SE 13 17 7 9 1012.0 1011.9 0.2
25/07:30am 25.8 29.4 22.3 81 2.4 SSE 7 11 4 6 1011.8 1011.7 0.2
25/07:00am 24.6 28.2 22.3 87 1.5 SSE 7 9 4 5 1011.9 1011.8 0.2
25/06:30am 24.3 27.1 21.6 85 1.8 SE 9 13 5 7 1011.9 1011.8 0.2
25/06:00am 24.8 25.5 21.5 82 2.2 E 20 35 11 19 1012.1 1012.0 0.2
25/05:30am 24.5 29.3 22.8 90 1.1 S 2 9 1 5 1010.7 1010.6 0.2
25/05:00am 24.6 29.6 22.5 88 1.4 CALM 0 0 0 0 1010.1 1010.0 0.2
25/04:30am 24.6 29.8 22.8 90 1.2 CALM 0 0 0 0 1010.2 1010.1 0.2
25/04:00am 24.3 28.1 22.4 89 1.3 SSW 6 7 3 4 1010.1 1010.0 0.2
25/03:30am 24.3 28.1 22.4 89 1.3 SW 6 7 3 4 1010.0 1009.9 0.2
25/03:00am 24.3 27.7 22.0 87 1.5 S 7 9 4 5 1010.4 1010.3 0.2
25/02:30am 24.5 26.5 21.6 84 1.9 S 13 19 7 10 1010.9 1010.8 0.2
25/02:00am 24.8 26.6 21.9 84 1.9 S 15 22 8 12 1011.2 1011.1 0.2
25/01:30am 25.2 28.6 22.7 86 1.7 S 9 15 5 8 1011.0 1010.9 0.2
25/01:00am 25.8 27.7 22.7 83 2.1 SSE 17 22 9 12 1011.5 1011.4 0.2
25/12:30am 26.0 29.1 23.5 86 1.7 SE 13 19 7 10 1011.9 1011.8 0.2
25/12:00am 26.3 29.8 24.2 88 1.4 SSE 13 15 7 8 1012.0 1011.9 0.2
 
Date/Time
CST
Temp
°C
App
Temp
°C
Dew
Point
°C
Rel
Hum
%
Delta-T
°C
Wind Press
QNH
hPa
Press
MSL
hPa
Rain since
9am
mm
Dir  Spd
km/h
Gust
km/h
Spd
kts
Gust
kts
24/11:30pm 26.4 30.7 23.7 85 1.9 ESE 7 9 4 5 1011.9 1011.8 0.2
24/11:00pm 26.8 31.6 24.1 85 1.9 E 6 7 3 4 1012.2 1012.1 0.2
24/10:30pm 27.1 32.6 24.0 83 2.1 E 2 7 1 4 1012.1 1012.0 0.2
24/10:00pm 27.3 33.8 25.1 88 1.5 CALM 0 0 0 0 1012.1 1012.0 0.2
24/09:30pm 27.3 32.8 24.6 85 1.9 ESE 4 7 2 4 1011.8 1011.7 0.2
24/09:00pm 27.3 32.2 24.4 84 2.0 SE 6 9 3 5 1011.3 1011.2 0.2
24/08:30pm 27.7 34.0 24.7 84 2.1 CALM 0 0 0 0 1010.7 1010.6 0.2
24/08:00pm 27.9 33.8 24.7 83 2.2 SE 2 6 1 3 1010.4 1010.3 0.2
24/07:30pm 28.0 32.5 24.0 79 2.8 ESE 7 9 4 5 1010.0 1009.9 0.2
24/07:00pm 28.6 33.1 23.9 75 3.2 ESE 7 9 4 5 1009.4 1009.3 0.2
24/06:30pm 29.7 33.8 23.9 71 4.0 ESE 9 13 5 7 1009.2 1009.1 0.2
24/06:00pm 30.2 34.1 23.6 67 4.6 E 9 13 5 7 1009.1 1009.0 0.2
24/05:30pm 31.9 34.6 22.9 59 6.2 ENE 13 20 7 11 1009.2 1009.1 0.2
24/05:00pm 32.6 34.3 22.4 55 7.0 ENE 17 24 9 13 1009.0 1008.9 0.2
24/04:30pm 32.6 35.2 22.7 56 6.8 NNE 13 20 7 11 1008.7 1008.6 0.2
24/04:00pm 32.9 35.4 21.7 51 7.6 NE 11 17 6 9 1008.8 1008.7 0.2
24/03:30pm 32.9 34.4 22.0 52 7.4 N 17 24 9 13 1009.2 1009.1 0.2
24/03:00pm 33.4 36.3 23.1 54 7.1 NE 13 20 7 11 1009.7 1009.6 0.2
24/02:30pm 33.4 36.4 24.0 58 6.6 NNE 15 22 8 12 1009.9 1009.8 0.2

Other Formats:

Comma delimited format used in spreadsheet applications
http://www.bom.gov.au/fwo/IDD60801/IDD60801.94152.axf

JavaScript Object Notation format (JSON) in row-major order
http://www.bom.gov.au/fwo/IDD60801/IDD60801.94152.json